sensor_id;sensor_type;location;lat;lon;timestamp;temperature;humidity
75821;DHT22;64454;51.984;9.838;2024-01-06T00:00:54;9.60;1.00
75821;DHT22;64454;51.984;9.838;2024-01-06T00:03:21;9.60;1.00
75821;DHT22;64454;51.984;9.838;2024-01-06T00:05:47;9.50;1.00
75821;DHT22;64454;51.984;9.838;2024-01-06T00:08:13;9.50;1.00
75821;DHT22;64454;51.984;9.838;2024-01-06T00:10:39;9.50;1.00
75821;DHT22;64454;51.984;9.838;2024-01-06T00:13:05;9.40;1.00
75821;DHT22;64454;51.984;9.838;2024-01-06T00:15:32;9.40;1.00
75821;DHT22;64454;51.984;9.838;2024-01-06T00:17:58;9.50;1.00
75821;DHT22;64454;51.984;9.838;2024-01-06T00:20:24;9.60;1.00
75821;DHT22;64454;51.984;9.838;2024-01-06T00:22:50;9.70;1.00
75821;DHT22;64454;51.984;9.838;2024-01-06T00:25:16;9.70;1.00
75821;DHT22;64454;51.984;9.838;2024-01-06T00:27:42;9.50;1.00
75821;DHT22;64454;51.984;9.838;2024-01-06T00:30:09;9.40;1.00
75821;DHT22;64454;51.984;9.838;2024-01-06T00:32:36;9.30;1.00
75821;DHT22;64454;51.984;9.838;2024-01-06T00:35:03;9.20;1.00
75821;DHT22;64454;51.984;9.838;2024-01-06T00:37:29;9.10;1.00
75821;DHT22;64454;51.984;9.838;2024-01-06T00:39:56;9.00;1.00
75821;DHT22;64454;51.984;9.838;2024-01-06T00:42:22;8.90;1.00
75821;DHT22;64454;51.984;9.838;2024-01-06T00:44:48;9.00;1.00
75821;DHT22;64454;51.984;9.838;2024-01-06T00:47:14;9.00;1.00
75821;DHT22;64454;51.984;9.838;2024-01-06T00:49:40;9.10;1.00
75821;DHT22;64454;51.984;9.838;2024-01-06T00:52:07;9.20;1.00
75821;DHT22;64454;51.984;9.838;2024-01-06T00:54:33;9.30;1.00
75821;DHT22;64454;51.984;9.838;2024-01-06T00:56:59;9.30;1.00
75821;DHT22;64454;51.984;9.838;2024-01-06T00:59:25;9.30;1.00
75821;DHT22;64454;51.984;9.838;2024-01-06T01:01:51;9.20;1.00
75821;DHT22;64454;51.984;9.838;2024-01-06T01:04:18;9.20;1.00
75821;DHT22;64454;51.984;9.838;2024-01-06T01:06:44;9.20;1.00
75821;DHT22;64454;51.984;9.838;2024-01-06T01:09:10;9.10;1.00
75821;DHT22;64454;51.984;9.838;2024-01-06T01:11:39;8.90;1.00
75821;DHT22;64454;51.984;9.838;2024-01-06T01:14:05;8.80;1.00
75821;DHT22;64454;51.984;9.838;2024-01-06T01:16:31;8.80;1.00
75821;DHT22;64454;51.984;9.838;2024-01-06T01:18:57;8.80;1.00
75821;DHT22;64454;51.984;9.838;2024-01-06T01:21:24;8.80;1.00
75821;DHT22;64454;51.984;9.838;2024-01-06T01:23:50;8.70;1.00
75821;DHT22;64454;51.984;9.838;2024-01-06T01:26:16;8.70;1.00
75821;DHT22;64454;51.984;9.838;2024-01-06T01:28:42;8.70;1.00
75821;DHT22;64454;51.984;9.838;2024-01-06T01:31:08;8.70;1.00
75821;DHT22;64454;51.984;9.838;2024-01-06T01:33:35;8.80;1.00
75821;DHT22;64454;51.984;9.838;2024-01-06T01:36:01;8.70;1.00
75821;DHT22;64454;51.984;9.838;2024-01-06T01:38:27;8.70;1.00
75821;DHT22;64454;51.984;9.838;2024-01-06T01:40:53;8.80;1.00
75821;DHT22;64454;51.984;9.838;2024-01-06T01:43:20;8.70;1.00
75821;DHT22;64454;51.984;9.838;2024-01-06T01:45:50;8.70;1.00
75821;DHT22;64454;51.984;9.838;2024-01-06T01:48:19;8.80;1.00
75821;DHT22;64454;51.984;9.838;2024-01-06T01:50:45;8.80;1.00
75821;DHT22;64454;51.984;9.838;2024-01-06T01:53:12;8.90;1.00
75821;DHT22;64454;51.984;9.838;2024-01-06T01:55:40;8.90;1.00
75821;DHT22;64454;51.984;9.838;2024-01-06T01:58:09;8.90;1.00
75821;DHT22;64454;51.984;9.838;2024-01-06T02:00:38;8.90;1.00
75821;DHT22;64454;51.984;9.838;2024-01-06T02:03:05;8.70;1.00
75821;DHT22;64454;51.984;9.838;2024-01-06T02:05:31;8.60;1.00
75821;DHT22;64454;51.984;9.838;2024-01-06T02:07:57;8.60;1.00
75821;DHT22;64454;51.984;9.838;2024-01-06T02:10:24;8.70;1.00
75821;DHT22;64454;51.984;9.838;2024-01-06T02:12:50;8.70;1.00
75821;DHT22;64454;51.984;9.838;2024-01-06T02:15:17;8.70;1.00
75821;DHT22;64454;51.984;9.838;2024-01-06T02:17:43;8.70;1.00
75821;DHT22;64454;51.984;9.838;2024-01-06T02:20:11;8.90;1.00
75821;DHT22;64454;51.984;9.838;2024-01-06T02:22:39;8.80;1.00
75821;DHT22;64454;51.984;9.838;2024-01-06T02:25:07;8.80;1.00
75821;DHT22;64454;51.984;9.838;2024-01-06T02:27:37;8.90;1.00
75821;DHT22;64454;51.984;9.838;2024-01-06T02:30:05;8.90;1.00
75821;DHT22;64454;51.984;9.838;2024-01-06T02:32:32;8.90;1.00
75821;DHT22;64454;51.984;9.838;2024-01-06T02:34:58;9.00;1.00
75821;DHT22;64454;51.984;9.838;2024-01-06T02:37:24;9.00;1.00
75821;DHT22;64454;51.984;9.838;2024-01-06T02:39:52;8.90;1.00
75821;DHT22;64454;51.984;9.838;2024-01-06T02:42:18;8.90;1.00
75821;DHT22;64454;51.984;9.838;2024-01-06T02:44:45;8.90;1.00
75821;DHT22;64454;51.984;9.838;2024-01-06T02:47:11;9.00;1.00
75821;DHT22;64454;51.984;9.838;2024-01-06T02:49:37;9.10;1.00
75821;DHT22;64454;51.984;9.838;2024-01-06T02:52:04;9.00;1.00
75821;DHT22;64454;51.984;9.838;2024-01-06T02:54:31;8.90;1.00
75821;DHT22;64454;51.984;9.838;2024-01-06T02:56:57;8.80;1.00
75821;DHT22;64454;51.984;9.838;2024-01-06T02:59:23;8.70;1.00
75821;DHT22;64454;51.984;9.838;2024-01-06T03:01:49;8.70;1.00
75821;DHT22;64454;51.984;9.838;2024-01-06T03:04:16;8.80;1.00
75821;DHT22;64454;51.984;9.838;2024-01-06T03:06:42;8.60;1.00
75821;DHT22;64454;51.984;9.838;2024-01-06T03:09:09;8.60;1.00
75821;DHT22;64454;51.984;9.838;2024-01-06T03:11:35;8.60;1.00
75821;DHT22;64454;51.984;9.838;2024-01-06T03:14:01;8.60;1.00
75821;DHT22;64454;51.984;9.838;2024-01-06T03:16:28;8.70;1.00
75821;DHT22;64454;51.984;9.838;2024-01-06T03:18:54;8.70;1.00
75821;DHT22;64454;51.984;9.838;2024-01-06T03:21:20;8.80;1.00
75821;DHT22;64454;51.984;9.838;2024-01-06T03:23:47;8.80;1.00
75821;DHT22;64454;51.984;9.838;2024-01-06T03:26:14;8.80;1.00
75821;DHT22;64454;51.984;9.838;2024-01-06T03:28:40;8.90;1.00
75821;DHT22;64454;51.984;9.838;2024-01-06T03:31:07;8.90;1.00
75821;DHT22;64454;51.984;9.838;2024-01-06T03:33:33;9.00;1.00
75821;DHT22;64454;51.984;9.838;2024-01-06T03:36:04;9.00;1.00
75821;DHT22;64454;51.984;9.838;2024-01-06T03:38:32;9.00;1.00
75821;DHT22;64454;51.984;9.838;2024-01-06T03:40:58;8.70;1.00
75821;DHT22;64454;51.984;9.838;2024-01-06T03:43:24;8.70;1.00
75821;DHT22;64454;51.984;9.838;2024-01-06T03:45:50;8.60;1.00
75821;DHT22;64454;51.984;9.838;2024-01-06T03:48:17;8.60;1.00
75821;DHT22;64454;51.984;9.838;2024-01-06T03:50:43;8.50;1.00
75821;DHT22;64454;51.984;9.838;2024-01-06T03:53:09;8.50;1.00
75821;DHT22;64454;51.984;9.838;2024-01-06T03:55:35;8.50;1.00
75821;DHT22;64454;51.984;9.838;2024-01-06T03:58:01;8.40;1.00
75821;DHT22;64454;51.984;9.838;2024-01-06T04:00:27;8.20;1.00
75821;DHT22;64454;51.984;9.838;2024-01-06T04:02:53;8.20;1.00
75821;DHT22;64454;51.984;9.838;2024-01-06T04:05:20;8.20;1.00
75821;DHT22;64454;51.984;9.838;2024-01-06T04:07:46;8.10;1.00
75821;DHT22;64454;51.984;9.838;2024-01-06T04:10:12;8.10;1.00
75821;DHT22;64454;51.984;9.838;2024-01-06T04:12:38;8.10;1.00
75821;DHT22;64454;51.984;9.838;2024-01-06T04:15:05;8.00;1.00
75821;DHT22;64454;51.984;9.838;2024-01-06T04:17:31;8.00;1.00
75821;DHT22;64454;51.984;9.838;2024-01-06T04:19:57;7.90;1.00
75821;DHT22;64454;51.984;9.838;2024-01-06T04:22:24;7.90;1.00
75821;DHT22;64454;51.984;9.838;2024-01-06T04:24:50;7.90;1.00
75821;DHT22;64454;51.984;9.838;2024-01-06T04:27:17;7.90;1.00
75821;DHT22;64454;51.984;9.838;2024-01-06T04:29:43;8.00;1.00
75821;DHT22;64454;51.984;9.838;2024-01-06T04:32:09;8.00;1.00
75821;DHT22;64454;51.984;9.838;2024-01-06T04:34:35;8.00;1.00
75821;DHT22;64454;51.984;9.838;2024-01-06T04:37:02;7.90;1.00
75821;DHT22;64454;51.984;9.838;2024-01-06T04:39:28;7.90;1.00
75821;DHT22;64454;51.984;9.838;2024-01-06T04:41:54;7.90;1.00
75821;DHT22;64454;51.984;9.838;2024-01-06T04:44:21;8.00;1.00
75821;DHT22;64454;51.984;9.838;2024-01-06T04:46:47;8.10;1.00
75821;DHT22;64454;51.984;9.838;2024-01-06T04:49:13;8.10;1.00
75821;DHT22;64454;51.984;9.838;2024-01-06T04:51:39;8.20;1.00
75821;DHT22;64454;51.984;9.838;2024-01-06T04:54:06;8.30;1.00
75821;DHT22;64454;51.984;9.838;2024-01-06T04:56:32;8.40;1.00
75821;DHT22;64454;51.984;9.838;2024-01-06T04:58:59;8.50;1.00
75821;DHT22;64454;51.984;9.838;2024-01-06T05:01:25;8.50;1.00
75821;DHT22;64454;51.984;9.838;2024-01-06T05:03:51;8.50;1.00
75821;DHT22;64454;51.984;9.838;2024-01-06T05:06:17;8.50;1.00
75821;DHT22;64454;51.984;9.838;2024-01-06T05:08:43;8.50;1.00
75821;DHT22;64454;51.984;9.838;2024-01-06T05:11:10;8.50;1.00
75821;DHT22;64454;51.984;9.838;2024-01-06T05:13:37;8.40;1.00
75821;DHT22;64454;51.984;9.838;2024-01-06T05:16:04;8.40;1.00
75821;DHT22;64454;51.984;9.838;2024-01-06T05:18:30;8.30;1.00
75821;DHT22;64454;51.984;9.838;2024-01-06T05:20:57;8.30;1.00
75821;DHT22;64454;51.984;9.838;2024-01-06T05:23:23;8.20;1.00
75821;DHT22;64454;51.984;9.838;2024-01-06T05:25:49;8.20;1.00
75821;DHT22;64454;51.984;9.838;2024-01-06T05:28:15;8.40;1.00
75821;DHT22;64454;51.984;9.838;2024-01-06T05:30:42;8.40;1.00
75821;DHT22;64454;51.984;9.838;2024-01-06T05:33:09;8.50;1.00
75821;DHT22;64454;51.984;9.838;2024-01-06T05:35:38;8.60;1.00
75821;DHT22;64454;51.984;9.838;2024-01-06T05:38:04;8.60;1.00
75821;DHT22;64454;51.984;9.838;2024-01-06T05:40:30;8.60;1.00
75821;DHT22;64454;51.984;9.838;2024-01-06T05:42:56;8.50;1.00
75821;DHT22;64454;51.984;9.838;2024-01-06T05:45:22;8.60;1.00
75821;DHT22;64454;51.984;9.838;2024-01-06T05:47:49;8.60;1.00
75821;DHT22;64454;51.984;9.838;2024-01-06T05:50:16;8.70;1.00
75821;DHT22;64454;51.984;9.838;2024-01-06T05:52:43;8.70;1.00
75821;DHT22;64454;51.984;9.838;2024-01-06T05:55:09;8.70;1.00
75821;DHT22;64454;51.984;9.838;2024-01-06T05:57:35;8.70;1.00
75821;DHT22;64454;51.984;9.838;2024-01-06T06:00:02;8.70;1.00
75821;DHT22;64454;51.984;9.838;2024-01-06T06:02:28;8.70;1.00
75821;DHT22;64454;51.984;9.838;2024-01-06T06:05:14;8.70;1.00
75821;DHT22;64454;51.984;9.838;2024-01-06T06:08:00;8.70;1.00
75821;DHT22;64454;51.984;9.838;2024-01-06T06:10:47;8.70;1.00
75821;DHT22;64454;51.984;9.838;2024-01-06T06:13:29;8.50;1.00
75821;DHT22;64454;51.984;9.838;2024-01-06T06:15:55;8.50;1.00
75821;DHT22;64454;51.984;9.838;2024-01-06T06:18:21;8.40;1.00
75821;DHT22;64454;51.984;9.838;2024-01-06T06:20:48;8.40;1.00
75821;DHT22;64454;51.984;9.838;2024-01-06T06:23:14;8.50;1.00
75821;DHT22;64454;51.984;9.838;2024-01-06T06:25:40;8.50;1.00
75821;DHT22;64454;51.984;9.838;2024-01-06T06:28:06;8.60;1.00
75821;DHT22;64454;51.984;9.838;2024-01-06T06:30:32;8.70;1.00
75821;DHT22;64454;51.984;9.838;2024-01-06T06:32:58;8.80;1.00
75821;DHT22;64454;51.984;9.838;2024-01-06T06:35:26;8.80;1.00
75821;DHT22;64454;51.984;9.838;2024-01-06T06:37:52;8.90;1.00
75821;DHT22;64454;51.984;9.838;2024-01-06T06:40:19;8.90;1.00
75821;DHT22;64454;51.984;9.838;2024-01-06T06:42:45;9.00;1.00
75821;DHT22;64454;51.984;9.838;2024-01-06T06:45:11;9.00;1.00
75821;DHT22;64454;51.984;9.838;2024-01-06T06:47:37;9.10;1.00
75821;DHT22;64454;51.984;9.838;2024-01-06T06:50:04;9.10;1.00
75821;DHT22;64454;51.984;9.838;2024-01-06T06:52:30;9.10;1.00
75821;DHT22;64454;51.984;9.838;2024-01-06T06:54:57;9.20;1.00
75821;DHT22;64454;51.984;9.838;2024-01-06T06:57:23;9.10;1.00
75821;DHT22;64454;51.984;9.838;2024-01-06T06:59:49;9.10;1.00
75821;DHT22;64454;51.984;9.838;2024-01-06T07:02:16;9.10;1.00
75821;DHT22;64454;51.984;9.838;2024-01-06T07:04:42;9.10;1.00
75821;DHT22;64454;51.984;9.838;2024-01-06T07:07:09;9.00;1.00
75821;DHT22;64454;51.984;9.838;2024-01-06T07:09:35;8.70;1.00
75821;DHT22;64454;51.984;9.838;2024-01-06T07:12:02;8.60;1.00
75821;DHT22;64454;51.984;9.838;2024-01-06T07:14:28;8.50;1.00
75821;DHT22;64454;51.984;9.838;2024-01-06T07:16:54;8.60;1.00
75821;DHT22;64454;51.984;9.838;2024-01-06T07:19:20;8.60;1.00
75821;DHT22;64454;51.984;9.838;2024-01-06T07:21:46;8.70;1.00
75821;DHT22;64454;51.984;9.838;2024-01-06T07:24:12;8.70;1.00
75821;DHT22;64454;51.984;9.838;2024-01-06T07:26:39;8.80;1.00
75821;DHT22;64454;51.984;9.838;2024-01-06T07:29:05;8.80;1.00
75821;DHT22;64454;51.984;9.838;2024-01-06T07:31:33;8.90;1.00
75821;DHT22;64454;51.984;9.838;2024-01-06T07:33:59;8.90;1.00
75821;DHT22;64454;51.984;9.838;2024-01-06T07:36:25;8.90;1.00
75821;DHT22;64454;51.984;9.838;2024-01-06T07:38:52;8.80;1.00
75821;DHT22;64454;51.984;9.838;2024-01-06T07:41:18;8.80;1.00
75821;DHT22;64454;51.984;9.838;2024-01-06T07:43:44;8.80;1.00
75821;DHT22;64454;51.984;9.838;2024-01-06T07:46:11;8.80;1.00
75821;DHT22;64454;51.984;9.838;2024-01-06T07:48:37;8.80;1.00
75821;DHT22;64454;51.984;9.838;2024-01-06T07:51:04;8.70;1.00
75821;DHT22;64454;51.984;9.838;2024-01-06T07:53:30;8.60;1.00
75821;DHT22;64454;51.984;9.838;2024-01-06T07:55:56;8.60;1.00
75821;DHT22;64454;51.984;9.838;2024-01-06T07:58:22;8.60;1.00
75821;DHT22;64454;51.984;9.838;2024-01-06T08:00:48;8.60;1.00
75821;DHT22;64454;51.984;9.838;2024-01-06T08:03:15;8.60;1.00
75821;DHT22;64454;51.984;9.838;2024-01-06T08:05:42;8.70;1.00
75821;DHT22;64454;51.984;9.838;2024-01-06T08:08:08;8.70;1.00
75821;DHT22;64454;51.984;9.838;2024-01-06T08:10:34;8.70;1.00
75821;DHT22;64454;51.984;9.838;2024-01-06T08:13:00;8.70;1.00
75821;DHT22;64454;51.984;9.838;2024-01-06T08:15:26;8.70;1.00
75821;DHT22;64454;51.984;9.838;2024-01-06T08:17:52;8.60;1.00
75821;DHT22;64454;51.984;9.838;2024-01-06T08:20:19;8.60;1.00
75821;DHT22;64454;51.984;9.838;2024-01-06T08:22:46;8.60;1.00
75821;DHT22;64454;51.984;9.838;2024-01-06T08:25:12;8.70;1.00
75821;DHT22;64454;51.984;9.838;2024-01-06T08:27:39;8.70;1.00
75821;DHT22;64454;51.984;9.838;2024-01-06T08:30:06;8.80;1.00
75821;DHT22;64454;51.984;9.838;2024-01-06T08:32:33;8.80;1.00
75821;DHT22;64454;51.984;9.838;2024-01-06T08:34:59;8.90;1.00
75821;DHT22;64454;51.984;9.838;2024-01-06T08:37:26;8.90;1.00
75821;DHT22;64454;51.984;9.838;2024-01-06T08:39:52;9.00;1.00
75821;DHT22;64454;51.984;9.838;2024-01-06T08:42:18;9.00;1.00
75821;DHT22;64454;51.984;9.838;2024-01-06T08:44:44;9.10;1.00
75821;DHT22;64454;51.984;9.838;2024-01-06T08:47:10;9.10;1.00
75821;DHT22;64454;51.984;9.838;2024-01-06T08:49:37;9.10;1.00
75821;DHT22;64454;51.984;9.838;2024-01-06T08:52:04;9.10;1.00
75821;DHT22;64454;51.984;9.838;2024-01-06T08:54:31;9.20;1.00
75821;DHT22;64454;51.984;9.838;2024-01-06T08:56:57;9.20;1.00
75821;DHT22;64454;51.984;9.838;2024-01-06T08:59:23;9.20;1.00
75821;DHT22;64454;51.984;9.838;2024-01-06T09:01:49;9.10;1.00
75821;DHT22;64454;51.984;9.838;2024-01-06T09:04:15;9.00;1.00
75821;DHT22;64454;51.984;9.838;2024-01-06T09:06:41;9.00;1.00
75821;DHT22;64454;51.984;9.838;2024-01-06T09:09:08;9.00;1.00
75821;DHT22;64454;51.984;9.838;2024-01-06T09:11:35;9.10;1.00
75821;DHT22;64454;51.984;9.838;2024-01-06T09:14:01;9.00;1.00
75821;DHT22;64454;51.984;9.838;2024-01-06T09:16:27;9.00;1.00
75821;DHT22;64454;51.984;9.838;2024-01-06T09:18:53;8.90;1.00
75821;DHT22;64454;51.984;9.838;2024-01-06T09:21:19;8.80;1.00
75821;DHT22;64454;51.984;9.838;2024-01-06T09:23:46;8.80;1.00
75821;DHT22;64454;51.984;9.838;2024-01-06T09:26:12;8.90;1.00
75821;DHT22;64454;51.984;9.838;2024-01-06T09:28:39;8.90;1.00
75821;DHT22;64454;51.984;9.838;2024-01-06T09:31:05;8.90;1.00
75821;DHT22;64454;51.984;9.838;2024-01-06T09:33:31;9.00;1.00
75821;DHT22;64454;51.984;9.838;2024-01-06T09:35:59;9.00;1.00
75821;DHT22;64454;51.984;9.838;2024-01-06T09:38:25;9.10;1.00
75821;DHT22;64454;51.984;9.838;2024-01-06T09:40:53;9.10;1.00
75821;DHT22;64454;51.984;9.838;2024-01-06T09:43:21;9.10;1.00
75821;DHT22;64454;51.984;9.838;2024-01-06T09:45:54;9.20;1.00
75821;DHT22;64454;51.984;9.838;2024-01-06T09:48:29;9.30;1.00
75821;DHT22;64454;51.984;9.838;2024-01-06T09:50:56;9.30;1.00
75821;DHT22;64454;51.984;9.838;2024-01-06T09:53:28;9.30;1.00
75821;DHT22;64454;51.984;9.838;2024-01-06T09:55:59;9.30;1.00
75821;DHT22;64454;51.984;9.838;2024-01-06T09:58:26;9.40;1.00
75821;DHT22;64454;51.984;9.838;2024-01-06T10:00:56;9.40;1.00
75821;DHT22;64454;51.984;9.838;2024-01-06T10:03:22;9.40;1.00
75821;DHT22;64454;51.984;9.838;2024-01-06T10:05:48;9.40;1.00
75821;DHT22;64454;51.984;9.838;2024-01-06T10:08:14;9.40;1.00
75821;DHT22;64454;51.984;9.838;2024-01-06T10:10:40;9.40;1.00
75821;DHT22;64454;51.984;9.838;2024-01-06T10:13:06;9.40;1.00
75821;DHT22;64454;51.984;9.838;2024-01-06T10:15:35;9.40;1.00
75821;DHT22;64454;51.984;9.838;2024-01-06T10:18:03;9.50;1.00
75821;DHT22;64454;51.984;9.838;2024-01-06T10:20:29;9.60;1.00
75821;DHT22;64454;51.984;9.838;2024-01-06T10:23:04;9.60;1.00
75821;DHT22;64454;51.984;9.838;2024-01-06T10:25:31;9.70;1.00
75821;DHT22;64454;51.984;9.838;2024-01-06T10:28:00;9.70;1.00
75821;DHT22;64454;51.984;9.838;2024-01-06T10:30:27;9.70;1.00
75821;DHT22;64454;51.984;9.838;2024-01-06T10:32:53;9.70;1.00
75821;DHT22;64454;51.984;9.838;2024-01-06T10:35:20;9.80;1.00
75821;DHT22;64454;51.984;9.838;2024-01-06T10:37:47;9.70;1.00
75821;DHT22;64454;51.984;9.838;2024-01-06T10:40:15;9.80;1.00
75821;DHT22;64454;51.984;9.838;2024-01-06T10:42:42;9.80;1.00
75821;DHT22;64454;51.984;9.838;2024-01-06T10:45:11;9.70;1.00
75821;DHT22;64454;51.984;9.838;2024-01-06T10:47:40;9.80;1.00
75821;DHT22;64454;51.984;9.838;2024-01-06T10:50:08;9.70;1.00
75821;DHT22;64454;51.984;9.838;2024-01-06T10:52:35;9.70;1.00
75821;DHT22;64454;51.984;9.838;2024-01-06T10:55:04;9.80;1.00
75821;DHT22;64454;51.984;9.838;2024-01-06T10:57:32;9.80;1.00
75821;DHT22;64454;51.984;9.838;2024-01-06T10:59:59;9.70;1.00
75821;DHT22;64454;51.984;9.838;2024-01-06T11:02:25;9.60;1.00
75821;DHT22;64454;51.984;9.838;2024-01-06T11:04:52;9.60;1.00
75821;DHT22;64454;51.984;9.838;2024-01-06T11:07:20;9.70;1.00
75821;DHT22;64454;51.984;9.838;2024-01-06T11:09:56;9.70;1.00
75821;DHT22;64454;51.984;9.838;2024-01-06T11:12:23;9.70;1.00
75821;DHT22;64454;51.984;9.838;2024-01-06T11:14:51;9.80;1.00
75821;DHT22;64454;51.984;9.838;2024-01-06T11:17:51;9.80;1.00
75821;DHT22;64454;51.984;9.838;2024-01-06T11:20:23;9.90;1.00
75821;DHT22;64454;51.984;9.838;2024-01-06T11:22:50;9.90;1.00
75821;DHT22;64454;51.984;9.838;2024-01-06T11:25:18;10.00;1.00
75821;DHT22;64454;51.984;9.838;2024-01-06T11:27:46;9.90;1.00
75821;DHT22;64454;51.984;9.838;2024-01-06T11:30:20;9.90;1.00
75821;DHT22;64454;51.984;9.838;2024-01-06T11:32:47;10.00;1.00
75821;DHT22;64454;51.984;9.838;2024-01-06T11:35:14;10.00;1.00
75821;DHT22;64454;51.984;9.838;2024-01-06T11:37:58;9.90;1.00
75821;DHT22;64454;51.984;9.838;2024-01-06T11:40:32;9.90;1.00
75821;DHT22;64454;51.984;9.838;2024-01-06T11:43:02;9.90;1.00
75821;DHT22;64454;51.984;9.838;2024-01-06T11:45:30;9.80;1.00
75821;DHT22;64454;51.984;9.838;2024-01-06T11:47:59;9.80;1.00
75821;DHT22;64454;51.984;9.838;2024-01-06T11:50:28;9.80;1.00
75821;DHT22;64454;51.984;9.838;2024-01-06T11:52:54;9.80;1.00
75821;DHT22;64454;51.984;9.838;2024-01-06T11:55:21;9.80;1.00
75821;DHT22;64454;51.984;9.838;2024-01-06T11:57:48;9.80;1.00
75821;DHT22;64454;51.984;9.838;2024-01-06T12:00:16;9.80;1.00
75821;DHT22;64454;51.984;9.838;2024-01-06T12:02:42;9.80;1.00
75821;DHT22;64454;51.984;9.838;2024-01-06T12:05:12;9.90;1.00
75821;DHT22;64454;51.984;9.838;2024-01-06T12:07:40;9.90;1.00
75821;DHT22;64454;51.984;9.838;2024-01-06T12:10:07;9.90;1.00
75821;DHT22;64454;51.984;9.838;2024-01-06T12:12:34;9.80;1.00
75821;DHT22;64454;51.984;9.838;2024-01-06T12:15:01;9.80;1.00
75821;DHT22;64454;51.984;9.838;2024-01-06T12:17:29;9.70;1.00
75821;DHT22;64454;51.984;9.838;2024-01-06T12:19:56;9.70;1.00
75821;DHT22;64454;51.984;9.838;2024-01-06T12:22:23;9.70;1.00
75821;DHT22;64454;51.984;9.838;2024-01-06T12:24:49;9.70;1.00
75821;DHT22;64454;51.984;9.838;2024-01-06T12:27:17;9.50;1.00
75821;DHT22;64454;51.984;9.838;2024-01-06T12:29:43;9.50;1.00
75821;DHT22;64454;51.984;9.838;2024-01-06T12:32:10;9.30;1.00
75821;DHT22;64454;51.984;9.838;2024-01-06T12:34:38;9.30;1.00
75821;DHT22;64454;51.984;9.838;2024-01-06T12:37:06;9.30;1.00
75821;DHT22;64454;51.984;9.838;2024-01-06T12:39:33;9.20;1.00
75821;DHT22;64454;51.984;9.838;2024-01-06T12:42:01;9.00;1.00
75821;DHT22;64454;51.984;9.838;2024-01-06T12:44:27;9.00;4.50
75821;DHT22;64454;51.984;9.838;2024-01-06T12:46:53;8.80;11.70
75821;DHT22;64454;51.984;9.838;2024-01-06T12:49:20;8.80;13.30
75821;DHT22;64454;51.984;9.838;2024-01-06T12:51:47;8.60;16.20
75821;DHT22;64454;51.984;9.838;2024-01-06T12:54:13;8.40;31.70
75821;DHT22;64454;51.984;9.838;2024-01-06T12:56:39;8.40;43.10
75821;DHT22;64454;51.984;9.838;2024-01-06T12:59:06;8.50;51.60
75821;DHT22;64454;51.984;9.838;2024-01-06T13:01:32;8.60;43.80
75821;DHT22;64454;51.984;9.838;2024-01-06T13:03:59;8.60;35.20
75821;DHT22;64454;51.984;9.838;2024-01-06T13:06:26;8.60;35.50
75821;DHT22;64454;51.984;9.838;2024-01-06T13:08:53;8.50;34.70
75821;DHT22;64454;51.984;9.838;2024-01-06T13:11:19;8.50;39.90
75821;DHT22;64454;51.984;9.838;2024-01-06T13:13:46;8.50;43.70
75821;DHT22;64454;51.984;9.838;2024-01-06T13:16:12;8.60;40.30
75821;DHT22;64454;51.984;9.838;2024-01-06T13:18:38;8.70;27.90
75821;DHT22;64454;51.984;9.838;2024-01-06T13:21:04;8.70;17.50
75821;DHT22;64454;51.984;9.838;2024-01-06T13:23:32;8.80;10.70
75821;DHT22;64454;51.984;9.838;2024-01-06T13:25:58;8.80;5.10
75821;DHT22;64454;51.984;9.838;2024-01-06T13:28:24;8.80;3.10
75821;DHT22;64454;51.984;9.838;2024-01-06T13:30:50;8.90;1.00
75821;DHT22;64454;51.984;9.838;2024-01-06T13:33:17;8.90;1.00
75821;DHT22;64454;51.984;9.838;2024-01-06T13:35:43;8.90;1.00
75821;DHT22;64454;51.984;9.838;2024-01-06T13:38:10;8.90;1.00
75821;DHT22;64454;51.984;9.838;2024-01-06T13:40:36;9.00;1.00
75821;DHT22;64454;51.984;9.838;2024-01-06T13:43:03;9.00;1.00
75821;DHT22;64454;51.984;9.838;2024-01-06T13:45:32;9.00;1.00
75821;DHT22;64454;51.984;9.838;2024-01-06T13:47:59;9.00;1.00
75821;DHT22;64454;51.984;9.838;2024-01-06T13:50:25;8.90;1.00
75821;DHT22;64454;51.984;9.838;2024-01-06T13:52:51;8.70;1.00
75821;DHT22;64454;51.984;9.838;2024-01-06T13:55:17;8.70;1.00
75821;DHT22;64454;51.984;9.838;2024-01-06T13:57:44;8.70;1.00
75821;DHT22;64454;51.984;9.838;2024-01-06T14:00:11;8.70;1.00
75821;DHT22;64454;51.984;9.838;2024-01-06T14:02:40;8.60;1.00
75821;DHT22;64454;51.984;9.838;2024-01-06T14:05:07;8.60;1.00
75821;DHT22;64454;51.984;9.838;2024-01-06T14:07:34;8.60;1.00
75821;DHT22;64454;51.984;9.838;2024-01-06T14:10:00;8.60;1.00
75821;DHT22;64454;51.984;9.838;2024-01-06T14:12:29;8.40;1.00
75821;DHT22;64454;51.984;9.838;2024-01-06T14:14:57;8.40;1.00
75821;DHT22;64454;51.984;9.838;2024-01-06T14:17:24;8.40;1.00
75821;DHT22;64454;51.984;9.838;2024-01-06T14:19:50;8.30;1.00
75821;DHT22;64454;51.984;9.838;2024-01-06T14:22:17;8.20;1.00
75821;DHT22;64454;51.984;9.838;2024-01-06T14:24:43;8.20;1.00
75821;DHT22;64454;51.984;9.838;2024-01-06T14:27:09;8.10;1.00
75821;DHT22;64454;51.984;9.838;2024-01-06T14:29:37;8.00;1.00
75821;DHT22;64454;51.984;9.838;2024-01-06T14:32:05;8.00;1.00
75821;DHT22;64454;51.984;9.838;2024-01-06T14:34:32;7.90;1.00
75821;DHT22;64454;51.984;9.838;2024-01-06T14:36:58;7.90;1.00
75821;DHT22;64454;51.984;9.838;2024-01-06T14:39:24;7.80;1.00
75821;DHT22;64454;51.984;9.838;2024-01-06T14:41:50;7.80;1.00
75821;DHT22;64454;51.984;9.838;2024-01-06T14:44:17;7.70;1.00
75821;DHT22;64454;51.984;9.838;2024-01-06T14:46:45;7.60;1.00
75821;DHT22;64454;51.984;9.838;2024-01-06T14:49:12;7.60;1.00
75821;DHT22;64454;51.984;9.838;2024-01-06T14:51:38;7.40;1.00
75821;DHT22;64454;51.984;9.838;2024-01-06T14:54:04;7.30;1.00
75821;DHT22;64454;51.984;9.838;2024-01-06T14:56:32;7.30;1.00
75821;DHT22;64454;51.984;9.838;2024-01-06T14:58:58;7.30;1.00
75821;DHT22;64454;51.984;9.838;2024-01-06T15:01:24;7.20;1.00
75821;DHT22;64454;51.984;9.838;2024-01-06T15:03:50;7.20;3.60
75821;DHT22;64454;51.984;9.838;2024-01-06T15:06:17;7.10;1.00
75821;DHT22;64454;51.984;9.838;2024-01-06T15:08:43;7.10;1.00
75821;DHT22;64454;51.984;9.838;2024-01-06T15:11:09;7.10;1.10
75821;DHT22;64454;51.984;9.838;2024-01-06T15:13:35;7.00;1.70
75821;DHT22;64454;51.984;9.838;2024-01-06T15:16:02;7.10;4.30
75821;DHT22;64454;51.984;9.838;2024-01-06T15:18:28;7.20;1.20
75821;DHT22;64454;51.984;9.838;2024-01-06T15:20:54;7.20;1.00
75821;DHT22;64454;51.984;9.838;2024-01-06T15:23:21;7.20;1.00
75821;DHT22;64454;51.984;9.838;2024-01-06T15:25:47;7.30;1.00
75821;DHT22;64454;51.984;9.838;2024-01-06T15:28:13;7.30;1.00
75821;DHT22;64454;51.984;9.838;2024-01-06T15:30:39;7.30;1.00
75821;DHT22;64454;51.984;9.838;2024-01-06T15:33:05;7.30;1.00
75821;DHT22;64454;51.984;9.838;2024-01-06T15:35:31;7.20;1.00
75821;DHT22;64454;51.984;9.838;2024-01-06T15:37:58;7.10;1.00
75821;DHT22;64454;51.984;9.838;2024-01-06T15:40:24;7.10;1.00
75821;DHT22;64454;51.984;9.838;2024-01-06T15:42:50;7.00;1.00
75821;DHT22;64454;51.984;9.838;2024-01-06T15:45:16;6.90;1.00
75821;DHT22;64454;51.984;9.838;2024-01-06T15:47:43;6.80;1.00
75821;DHT22;64454;51.984;9.838;2024-01-06T15:50:09;6.80;1.00
75821;DHT22;64454;51.984;9.838;2024-01-06T15:52:35;6.80;1.00
75821;DHT22;64454;51.984;9.838;2024-01-06T15:55:02;6.60;1.00
75821;DHT22;64454;51.984;9.838;2024-01-06T15:57:29;6.60;1.00